sensor_id;sensor_type;location;lat;lon;timestamp;P1;durP1;ratioP1;P2;durP2;ratioP2
47960;SDS011;33721;48.852;9.936;2022-12-18T00:01:18;93.38;;;28.67;;
47960;SDS011;33721;48.852;9.936;2022-12-18T00:03:45;103.93;;;29.63;;
47960;SDS011;33721;48.852;9.936;2022-12-18T00:06:11;108.35;;;30.50;;
47960;SDS011;33721;48.852;9.936;2022-12-18T00:08:38;110.32;;;28.60;;
47960;SDS011;33721;48.852;9.936;2022-12-18T00:11:08;82.63;;;25.67;;
47960;SDS011;33721;48.852;9.936;2022-12-18T00:13:37;96.15;;;27.83;;
47960;SDS011;33721;48.852;9.936;2022-12-18T00:16:04;97.53;;;26.58;;
47960;SDS011;33721;48.852;9.936;2022-12-18T00:18:31;142.30;;;33.42;;
47960;SDS011;33721;48.852;9.936;2022-12-18T00:21:05;202.05;;;47.00;;
47960;SDS011;33721;48.852;9.936;2022-12-18T00:23:32;135.68;;;35.05;;
47960;SDS011;33721;48.852;9.936;2022-12-18T00:26:03;133.85;;;34.58;;
47960;SDS011;33721;48.852;9.936;2022-12-18T00:28:30;128.23;;;32.42;;
47960;SDS011;33721;48.852;9.936;2022-12-18T00:31:03;129.25;;;34.63;;
47960;SDS011;33721;48.852;9.936;2022-12-18T00:33:30;116.65;;;33.00;;
47960;SDS011;33721;48.852;9.936;2022-12-18T00:36:03;105.63;;;30.40;;
47960;SDS011;33721;48.852;9.936;2022-12-18T00:38:37;116.65;;;30.98;;
47960;SDS011;33721;48.852;9.936;2022-12-18T00:41:03;112.30;;;32.85;;
47960;SDS011;33721;48.852;9.936;2022-12-18T00:43:29;115.18;;;30.88;;
47960;SDS011;33721;48.852;9.936;2022-12-18T00:45:55;103.65;;;27.10;;
47960;SDS011;33721;48.852;9.936;2022-12-18T00:48:21;104.10;;;28.80;;
47960;SDS011;33721;48.852;9.936;2022-12-18T00:50:48;96.38;;;26.95;;
47960;SDS011;33721;48.852;9.936;2022-12-18T00:53:14;96.68;;;27.60;;
47960;SDS011;33721;48.852;9.936;2022-12-18T00:55:40;89.90;;;24.90;;
47960;SDS011;33721;48.852;9.936;2022-12-18T00:58:07;87.97;;;24.30;;
47960;SDS011;33721;48.852;9.936;2022-12-18T01:00:33;99.30;;;25.75;;
47960;SDS011;33721;48.852;9.936;2022-12-18T01:02:59;87.28;;;26.02;;
47960;SDS011;33721;48.852;9.936;2022-12-18T01:05:25;93.03;;;25.23;;
47960;SDS011;33721;48.852;9.936;2022-12-18T01:07:51;88.75;;;25.23;;
47960;SDS011;33721;48.852;9.936;2022-12-18T01:10:16;92.80;;;24.25;;
47960;SDS011;33721;48.852;9.936;2022-12-18T01:12:42;94.13;;;24.75;;
47960;SDS011;33721;48.852;9.936;2022-12-18T01:15:09;94.47;;;25.30;;
47960;SDS011;33721;48.852;9.936;2022-12-18T01:17:35;87.60;;;24.70;;
47960;SDS011;33721;48.852;9.936;2022-12-18T01:20:01;86.40;;;23.30;;
47960;SDS011;33721;48.852;9.936;2022-12-18T01:22:27;76.18;;;22.58;;
47960;SDS011;33721;48.852;9.936;2022-12-18T01:24:53;78.22;;;24.27;;
47960;SDS011;33721;48.852;9.936;2022-12-18T01:27:18;83.38;;;23.67;;
47960;SDS011;33721;48.852;9.936;2022-12-18T01:29:44;86.82;;;23.67;;
47960;SDS011;33721;48.852;9.936;2022-12-18T01:32:10;89.43;;;23.20;;
47960;SDS011;33721;48.852;9.936;2022-12-18T01:34:36;85.97;;;23.80;;
47960;SDS011;33721;48.852;9.936;2022-12-18T01:37:05;79.90;;;23.17;;
47960;SDS011;33721;48.852;9.936;2022-12-18T01:39:31;74.78;;;21.90;;
47960;SDS011;33721;48.852;9.936;2022-12-18T01:41:58;71.95;;;20.45;;
47960;SDS011;33721;48.852;9.936;2022-12-18T01:47:18;76.43;;;20.42;;
47960;SDS011;33721;48.852;9.936;2022-12-18T01:49:45;77.72;;;22.67;;
47960;SDS011;33721;48.852;9.936;2022-12-18T01:52:11;74.13;;;21.02;;
47960;SDS011;33721;48.852;9.936;2022-12-18T01:54:36;86.35;;;24.55;;
47960;SDS011;33721;48.852;9.936;2022-12-18T01:57:02;81.28;;;22.38;;
47960;SDS011;33721;48.852;9.936;2022-12-18T01:59:28;74.30;;;21.67;;
47960;SDS011;33721;48.852;9.936;2022-12-18T02:01:57;89.97;;;22.90;;
47960;SDS011;33721;48.852;9.936;2022-12-18T02:04:25;78.95;;;22.95;;
47960;SDS011;33721;48.852;9.936;2022-12-18T02:06:55;84.82;;;24.67;;
47960;SDS011;33721;48.852;9.936;2022-12-18T02:09:35;97.22;;;25.15;;
47960;SDS011;33721;48.852;9.936;2022-12-18T02:14:59;87.72;;;23.73;;
47960;SDS011;33721;48.852;9.936;2022-12-18T02:17:33;82.50;;;23.05;;
47960;SDS011;33721;48.852;9.936;2022-12-18T02:23:10;78.72;;;21.50;;
47960;SDS011;33721;48.852;9.936;2022-12-18T02:28:18;86.18;;;22.27;;
47960;SDS011;33721;48.852;9.936;2022-12-18T02:30:48;76.20;;;21.75;;
47960;SDS011;33721;48.852;9.936;2022-12-18T02:33:16;82.05;;;23.17;;
47960;SDS011;33721;48.852;9.936;2022-12-18T02:35:44;76.28;;;22.20;;
47960;SDS011;33721;48.852;9.936;2022-12-18T02:38:10;82.68;;;21.80;;
47960;SDS011;33721;48.852;9.936;2022-12-18T02:40:38;78.00;;;21.60;;
47960;SDS011;33721;48.852;9.936;2022-12-18T02:43:11;81.80;;;21.42;;
47960;SDS011;33721;48.852;9.936;2022-12-18T02:45:55;80.10;;;23.23;;
47960;SDS011;33721;48.852;9.936;2022-12-18T02:48:24;80.68;;;22.33;;
47960;SDS011;33721;48.852;9.936;2022-12-18T02:51:03;81.13;;;21.88;;
47960;SDS011;33721;48.852;9.936;2022-12-18T02:53:45;85.47;;;23.33;;
47960;SDS011;33721;48.852;9.936;2022-12-18T02:56:35;84.68;;;21.70;;
47960;SDS011;33721;48.852;9.936;2022-12-18T02:59:14;79.75;;;20.70;;
47960;SDS011;33721;48.852;9.936;2022-12-18T03:01:50;71.30;;;20.38;;
47960;SDS011;33721;48.852;9.936;2022-12-18T03:07:03;80.03;;;21.60;;
47960;SDS011;33721;48.852;9.936;2022-12-18T03:09:35;78.05;;;21.45;;
47960;SDS011;33721;48.852;9.936;2022-12-18T03:12:13;83.65;;;22.27;;
47960;SDS011;33721;48.852;9.936;2022-12-18T03:15:00;71.32;;;20.30;;
47960;SDS011;33721;48.852;9.936;2022-12-18T03:17:33;81.07;;;21.13;;
47960;SDS011;33721;48.852;9.936;2022-12-18T03:20:03;69.45;;;20.65;;
47960;SDS011;33721;48.852;9.936;2022-12-18T03:22:35;72.70;;;21.45;;
47960;SDS011;33721;48.852;9.936;2022-12-18T03:25:04;70.25;;;19.25;;
47960;SDS011;33721;48.852;9.936;2022-12-18T03:27:33;53.42;;;15.05;;
47960;SDS011;33721;48.852;9.936;2022-12-18T03:35:08;66.88;;;18.10;;
47960;SDS011;33721;48.852;9.936;2022-12-18T03:37:36;77.10;;;18.95;;
47960;SDS011;33721;48.852;9.936;2022-12-18T03:40:03;71.85;;;20.00;;
47960;SDS011;33721;48.852;9.936;2022-12-18T03:42:32;64.05;;;17.02;;
47960;SDS011;33721;48.852;9.936;2022-12-18T03:45:29;61.28;;;16.88;;
47960;SDS011;33721;48.852;9.936;2022-12-18T03:48:01;64.03;;;18.10;;
47960;SDS011;33721;48.852;9.936;2022-12-18T03:50:54;56.90;;;16.60;;
47960;SDS011;33721;48.852;9.936;2022-12-18T03:53:43;59.08;;;16.83;;
47960;SDS011;33721;48.852;9.936;2022-12-18T03:56:15;58.92;;;17.00;;
47960;SDS011;33721;48.852;9.936;2022-12-18T03:58:42;59.70;;;16.00;;
47960;SDS011;33721;48.852;9.936;2022-12-18T04:01:09;60.90;;;16.33;;
47960;SDS011;33721;48.852;9.936;2022-12-18T04:03:38;60.38;;;16.05;;
47960;SDS011;33721;48.852;9.936;2022-12-18T04:06:06;65.07;;;16.77;;
47960;SDS011;33721;48.852;9.936;2022-12-18T04:08:32;61.70;;;16.70;;
47960;SDS011;33721;48.852;9.936;2022-12-18T04:10:59;57.15;;;14.95;;
47960;SDS011;33721;48.852;9.936;2022-12-18T04:13:32;53.92;;;15.15;;
47960;SDS011;33721;48.852;9.936;2022-12-18T04:16:00;59.38;;;16.48;;
47960;SDS011;33721;48.852;9.936;2022-12-18T04:18:26;55.88;;;15.07;;
47960;SDS011;33721;48.852;9.936;2022-12-18T04:20:52;62.58;;;16.35;;
47960;SDS011;33721;48.852;9.936;2022-12-18T04:23:17;51.15;;;15.40;;
47960;SDS011;33721;48.852;9.936;2022-12-18T04:25:43;61.13;;;15.13;;
47960;SDS011;33721;48.852;9.936;2022-12-18T04:28:09;68.90;;;16.77;;
47960;SDS011;33721;48.852;9.936;2022-12-18T04:30:34;56.72;;;15.00;;
47960;SDS011;33721;48.852;9.936;2022-12-18T04:33:00;59.17;;;15.82;;
47960;SDS011;33721;48.852;9.936;2022-12-18T04:35:26;56.85;;;16.20;;
47960;SDS011;33721;48.852;9.936;2022-12-18T04:37:51;56.00;;;15.80;;
47960;SDS011;33721;48.852;9.936;2022-12-18T04:40:17;55.47;;;14.95;;
47960;SDS011;33721;48.852;9.936;2022-12-18T04:42:42;57.80;;;16.15;;
47960;SDS011;33721;48.852;9.936;2022-12-18T04:45:08;67.28;;;16.27;;
47960;SDS011;33721;48.852;9.936;2022-12-18T04:47:34;70.20;;;16.75;;
47960;SDS011;33721;48.852;9.936;2022-12-18T04:49:59;59.83;;;15.80;;
47960;SDS011;33721;48.852;9.936;2022-12-18T04:52:25;64.80;;;15.43;;
47960;SDS011;33721;48.852;9.936;2022-12-18T04:54:51;58.25;;;15.63;;
47960;SDS011;33721;48.852;9.936;2022-12-18T04:57:16;59.45;;;14.95;;
47960;SDS011;33721;48.852;9.936;2022-12-18T04:59:45;54.00;;;15.23;;
47960;SDS011;33721;48.852;9.936;2022-12-18T05:02:10;61.85;;;15.43;;
47960;SDS011;33721;48.852;9.936;2022-12-18T05:04:36;57.53;;;15.55;;
47960;SDS011;33721;48.852;9.936;2022-12-18T05:07:02;67.55;;;15.73;;
47960;SDS011;33721;48.852;9.936;2022-12-18T05:09:27;53.63;;;14.20;;
47960;SDS011;33721;48.852;9.936;2022-12-18T05:11:53;58.55;;;15.30;;
47960;SDS011;33721;48.852;9.936;2022-12-18T05:14:19;56.25;;;15.35;;
47960;SDS011;33721;48.852;9.936;2022-12-18T05:16:44;64.72;;;16.05;;
47960;SDS011;33721;48.852;9.936;2022-12-18T05:19:10;66.40;;;16.10;;
47960;SDS011;33721;48.852;9.936;2022-12-18T05:21:36;68.80;;;16.52;;
47960;SDS011;33721;48.852;9.936;2022-12-18T05:24:01;66.13;;;16.10;;
47960;SDS011;33721;48.852;9.936;2022-12-18T05:26:27;61.85;;;16.63;;
47960;SDS011;33721;48.852;9.936;2022-12-18T05:28:56;59.65;;;16.70;;
47960;SDS011;33721;48.852;9.936;2022-12-18T05:31:21;65.40;;;16.63;;
47960;SDS011;33721;48.852;9.936;2022-12-18T05:33:50;64.75;;;16.35;;
47960;SDS011;33721;48.852;9.936;2022-12-18T05:36:16;58.08;;;15.63;;
47960;SDS011;33721;48.852;9.936;2022-12-18T05:38:41;66.35;;;15.77;;
47960;SDS011;33721;48.852;9.936;2022-12-18T05:41:07;72.35;;;16.30;;
47960;SDS011;33721;48.852;9.936;2022-12-18T05:43:34;63.35;;;16.45;;
47960;SDS011;33721;48.852;9.936;2022-12-18T05:46:05;70.30;;;16.38;;
47960;SDS011;33721;48.852;9.936;2022-12-18T05:48:37;70.50;;;16.83;;
47960;SDS011;33721;48.852;9.936;2022-12-18T05:51:06;62.50;;;16.17;;
47960;SDS011;33721;48.852;9.936;2022-12-18T05:53:33;66.07;;;16.50;;
47960;SDS011;33721;48.852;9.936;2022-12-18T05:56:00;63.30;;;16.35;;
47960;SDS011;33721;48.852;9.936;2022-12-18T05:58:30;59.63;;;16.17;;
47960;SDS011;33721;48.852;9.936;2022-12-18T06:00:57;63.20;;;16.08;;
47960;SDS011;33721;48.852;9.936;2022-12-18T06:03:23;56.15;;;14.80;;
47960;SDS011;33721;48.852;9.936;2022-12-18T06:05:49;61.63;;;15.32;;
47960;SDS011;33721;48.852;9.936;2022-12-18T06:08:15;64.28;;;16.38;;
47960;SDS011;33721;48.852;9.936;2022-12-18T06:10:40;62.22;;;16.50;;
47960;SDS011;33721;48.852;9.936;2022-12-18T06:13:06;67.45;;;16.42;;
47960;SDS011;33721;48.852;9.936;2022-12-18T06:15:35;64.00;;;16.17;;
47960;SDS011;33721;48.852;9.936;2022-12-18T06:18:02;73.25;;;17.70;;
47960;SDS011;33721;48.852;9.936;2022-12-18T06:20:31;64.07;;;17.00;;
47960;SDS011;33721;48.852;9.936;2022-12-18T06:22:56;69.38;;;17.58;;
47960;SDS011;33721;48.852;9.936;2022-12-18T06:25:22;77.80;;;17.65;;
47960;SDS011;33721;48.852;9.936;2022-12-18T06:27:47;63.05;;;16.98;;
47960;SDS011;33721;48.852;9.936;2022-12-18T06:30:13;72.22;;;16.75;;
47960;SDS011;33721;48.852;9.936;2022-12-18T06:32:39;76.60;;;17.30;;
47960;SDS011;33721;48.852;9.936;2022-12-18T06:35:05;66.03;;;16.95;;
47960;SDS011;33721;48.852;9.936;2022-12-18T06:37:34;73.57;;;17.65;;
47960;SDS011;33721;48.852;9.936;2022-12-18T06:40:00;63.28;;;17.38;;
47960;SDS011;33721;48.852;9.936;2022-12-18T06:42:26;70.25;;;16.13;;
47960;SDS011;33721;48.852;9.936;2022-12-18T06:44:51;77.03;;;15.90;;
47960;SDS011;33721;48.852;9.936;2022-12-18T06:47:17;68.43;;;16.23;;
47960;SDS011;33721;48.852;9.936;2022-12-18T06:49:43;68.18;;;16.88;;
47960;SDS011;33721;48.852;9.936;2022-12-18T06:52:09;71.20;;;17.10;;
47960;SDS011;33721;48.852;9.936;2022-12-18T06:54:34;68.18;;;16.27;;
47960;SDS011;33721;48.852;9.936;2022-12-18T06:57:00;68.25;;;15.85;;
47960;SDS011;33721;48.852;9.936;2022-12-18T06:59:26;71.97;;;17.40;;
47960;SDS011;33721;48.852;9.936;2022-12-18T07:01:51;63.55;;;16.73;;
47960;SDS011;33721;48.852;9.936;2022-12-18T07:04:17;62.35;;;16.52;;
47960;SDS011;33721;48.852;9.936;2022-12-18T07:06:42;65.07;;;17.15;;
47960;SDS011;33721;48.852;9.936;2022-12-18T07:09:08;78.40;;;18.33;;
47960;SDS011;33721;48.852;9.936;2022-12-18T07:11:34;67.60;;;16.63;;
47960;SDS011;33721;48.852;9.936;2022-12-18T07:14:00;72.88;;;16.88;;
47960;SDS011;33721;48.852;9.936;2022-12-18T07:16:25;64.38;;;16.45;;
47960;SDS011;33721;48.852;9.936;2022-12-18T07:18:54;67.32;;;16.33;;
47960;SDS011;33721;48.852;9.936;2022-12-18T07:21:20;61.70;;;16.00;;
47960;SDS011;33721;48.852;9.936;2022-12-18T07:23:46;63.72;;;16.58;;
47960;SDS011;33721;48.852;9.936;2022-12-18T07:26:13;72.85;;;18.30;;
47960;SDS011;33721;48.852;9.936;2022-12-18T07:28:40;67.65;;;17.13;;
47960;SDS011;33721;48.852;9.936;2022-12-18T07:31:07;79.68;;;18.00;;
47960;SDS011;33721;48.852;9.936;2022-12-18T07:33:35;68.28;;;18.40;;
47960;SDS011;33721;48.852;9.936;2022-12-18T07:36:01;79.00;;;19.25;;
47960;SDS011;33721;48.852;9.936;2022-12-18T07:38:29;90.68;;;20.33;;
47960;SDS011;33721;48.852;9.936;2022-12-18T07:41:00;80.07;;;19.27;;
47960;SDS011;33721;48.852;9.936;2022-12-18T07:43:26;85.22;;;21.17;;
47960;SDS011;33721;48.852;9.936;2022-12-18T07:45:52;80.47;;;19.42;;
47960;SDS011;33721;48.852;9.936;2022-12-18T07:48:17;78.55;;;19.35;;
47960;SDS011;33721;48.852;9.936;2022-12-18T07:50:43;87.68;;;21.95;;
47960;SDS011;33721;48.852;9.936;2022-12-18T07:53:09;74.18;;;19.85;;
47960;SDS011;33721;48.852;9.936;2022-12-18T07:55:34;74.05;;;19.50;;
47960;SDS011;33721;48.852;9.936;2022-12-18T07:58:01;72.25;;;19.15;;
47960;SDS011;33721;48.852;9.936;2022-12-18T08:00:27;70.88;;;19.08;;
47960;SDS011;33721;48.852;9.936;2022-12-18T08:02:53;73.80;;;17.58;;
47960;SDS011;33721;48.852;9.936;2022-12-18T08:05:19;65.10;;;17.08;;
47960;SDS011;33721;48.852;9.936;2022-12-18T08:07:45;74.97;;;18.58;;
47960;SDS011;33721;48.852;9.936;2022-12-18T08:10:11;70.38;;;18.90;;
47960;SDS011;33721;48.852;9.936;2022-12-18T08:12:37;73.15;;;19.58;;
47960;SDS011;33721;48.852;9.936;2022-12-18T08:15:03;69.22;;;17.98;;
47960;SDS011;33721;48.852;9.936;2022-12-18T08:17:29;69.68;;;18.42;;
47960;SDS011;33721;48.852;9.936;2022-12-18T08:19:54;71.32;;;18.40;;
47960;SDS011;33721;48.852;9.936;2022-12-18T08:22:20;73.28;;;20.00;;
47960;SDS011;33721;48.852;9.936;2022-12-18T08:24:46;65.25;;;17.95;;
47960;SDS011;33721;48.852;9.936;2022-12-18T08:27:11;80.13;;;19.42;;
47960;SDS011;33721;48.852;9.936;2022-12-18T08:29:37;72.20;;;18.58;;
47960;SDS011;33721;48.852;9.936;2022-12-18T08:32:03;87.68;;;24.88;;
47960;SDS011;33721;48.852;9.936;2022-12-18T08:34:29;81.03;;;20.83;;
47960;SDS011;33721;48.852;9.936;2022-12-18T08:36:54;79.22;;;20.55;;
47960;SDS011;33721;48.852;9.936;2022-12-18T08:39:20;81.80;;;21.02;;
47960;SDS011;33721;48.852;9.936;2022-12-18T08:41:45;72.10;;;19.05;;
47960;SDS011;33721;48.852;9.936;2022-12-18T08:44:31;76.55;;;20.17;;
47960;SDS011;33721;48.852;9.936;2022-12-18T08:47:02;75.32;;;19.10;;
47960;SDS011;33721;48.852;9.936;2022-12-18T08:49:29;75.97;;;21.00;;
47960;SDS011;33721;48.852;9.936;2022-12-18T08:51:55;78.22;;;20.50;;
47960;SDS011;33721;48.852;9.936;2022-12-18T08:54:22;83.78;;;21.30;;
47960;SDS011;33721;48.852;9.936;2022-12-18T08:56:48;70.45;;;20.25;;
47960;SDS011;33721;48.852;9.936;2022-12-18T08:59:14;73.88;;;19.08;;
47960;SDS011;33721;48.852;9.936;2022-12-18T09:01:41;79.60;;;21.13;;
47960;SDS011;33721;48.852;9.936;2022-12-18T09:04:07;74.18;;;20.52;;
47960;SDS011;33721;48.852;9.936;2022-12-18T09:06:37;83.85;;;20.92;;
47960;SDS011;33721;48.852;9.936;2022-12-18T09:09:03;72.80;;;21.45;;
47960;SDS011;33721;48.852;9.936;2022-12-18T09:11:30;74.18;;;21.70;;
47960;SDS011;33721;48.852;9.936;2022-12-18T09:13:59;75.03;;;21.02;;
47960;SDS011;33721;48.852;9.936;2022-12-18T09:16:26;72.32;;;20.30;;
47960;SDS011;33721;48.852;9.936;2022-12-18T09:18:56;78.72;;;20.95;;
47960;SDS011;33721;48.852;9.936;2022-12-18T09:21:30;73.60;;;20.65;;
47960;SDS011;33721;48.852;9.936;2022-12-18T09:23:59;80.22;;;20.83;;
47960;SDS011;33721;48.852;9.936;2022-12-18T09:26:26;77.85;;;21.67;;
47960;SDS011;33721;48.852;9.936;2022-12-18T09:28:52;83.15;;;22.85;;
47960;SDS011;33721;48.852;9.936;2022-12-18T09:31:18;77.47;;;21.42;;
47960;SDS011;33721;48.852;9.936;2022-12-18T09:33:45;72.57;;;19.73;;
47960;SDS011;33721;48.852;9.936;2022-12-18T09:36:12;75.18;;;21.55;;
47960;SDS011;33721;48.852;9.936;2022-12-18T09:38:39;72.70;;;21.17;;
47960;SDS011;33721;48.852;9.936;2022-12-18T09:41:22;75.47;;;21.73;;
47960;SDS011;33721;48.852;9.936;2022-12-18T09:44:11;80.03;;;20.58;;
47960;SDS011;33721;48.852;9.936;2022-12-18T09:46:40;74.13;;;20.52;;
47960;SDS011;33721;48.852;9.936;2022-12-18T09:49:22;81.53;;;23.33;;
47960;SDS011;33721;48.852;9.936;2022-12-18T09:51:56;78.15;;;22.23;;
47960;SDS011;33721;48.852;9.936;2022-12-18T09:54:31;83.88;;;31.75;;
47960;SDS011;33721;48.852;9.936;2022-12-18T09:57:03;73.25;;;21.58;;
47960;SDS011;33721;48.852;9.936;2022-12-18T09:59:30;73.88;;;21.80;;
47960;SDS011;33721;48.852;9.936;2022-12-18T10:02:35;71.70;;;21.23;;
47960;SDS011;33721;48.852;9.936;2022-12-18T10:04:59;84.47;;;22.95;;
47960;SDS011;33721;48.852;9.936;2022-12-18T10:12:58;64.03;;;20.00;;
47960;SDS011;33721;48.852;9.936;2022-12-18T10:15:36;74.22;;;23.92;;
47960;SDS011;33721;48.852;9.936;2022-12-18T10:18:16;82.20;;;24.83;;
47960;SDS011;33721;48.852;9.936;2022-12-18T10:20:55;70.28;;;19.80;;
47960;SDS011;33721;48.852;9.936;2022-12-18T10:26:11;59.33;;;19.23;;
47960;SDS011;33721;48.852;9.936;2022-12-18T10:28:40;84.45;;;28.38;;
47960;SDS011;33721;48.852;9.936;2022-12-18T10:31:07;77.38;;;23.42;;
47960;SDS011;33721;48.852;9.936;2022-12-18T10:33:42;100.22;;;34.95;;
47960;SDS011;33721;48.852;9.936;2022-12-18T10:36:08;76.78;;;23.02;;
47960;SDS011;33721;48.852;9.936;2022-12-18T10:38:34;78.93;;;23.23;;
47960;SDS011;33721;48.852;9.936;2022-12-18T10:41:01;69.65;;;21.27;;
47960;SDS011;33721;48.852;9.936;2022-12-18T10:48:41;68.32;;;21.42;;
47960;SDS011;33721;48.852;9.936;2022-12-18T10:53:53;86.32;;;31.00;;
47960;SDS011;33721;48.852;9.936;2022-12-18T10:56:26;76.55;;;22.17;;
47960;SDS011;33721;48.852;9.936;2022-12-18T10:59:00;62.72;;;18.25;;
47960;SDS011;33721;48.852;9.936;2022-12-18T11:01:45;66.78;;;20.55;;
47960;SDS011;33721;48.852;9.936;2022-12-18T11:04:18;66.47;;;18.90;;
47960;SDS011;33721;48.852;9.936;2022-12-18T11:07:02;65.90;;;20.63;;
47960;SDS011;33721;48.852;9.936;2022-12-18T11:09:33;56.60;;;17.60;;
47960;SDS011;33721;48.852;9.936;2022-12-18T11:12:04;60.08;;;19.63;;
47960;SDS011;33721;48.852;9.936;2022-12-18T11:14:34;64.00;;;19.17;;
47960;SDS011;33721;48.852;9.936;2022-12-18T11:17:20;74.38;;;27.20;;
47960;SDS011;33721;48.852;9.936;2022-12-18T11:19:56;75.47;;;28.05;;
47960;SDS011;33721;48.852;9.936;2022-12-18T11:22:39;64.03;;;18.73;;
47960;SDS011;33721;48.852;9.936;2022-12-18T11:25:06;55.67;;;18.27;;
47960;SDS011;33721;48.852;9.936;2022-12-18T11:27:54;64.68;;;20.63;;
47960;SDS011;33721;48.852;9.936;2022-12-18T11:30:32;61.38;;;18.20;;
47960;SDS011;33721;48.852;9.936;2022-12-18T11:33:06;54.45;;;17.48;;
47960;SDS011;33721;48.852;9.936;2022-12-18T11:35:55;58.00;;;17.73;;
47960;SDS011;33721;48.852;9.936;2022-12-18T11:38:31;53.55;;;15.80;;
47960;SDS011;33721;48.852;9.936;2022-12-18T11:41:17;60.13;;;18.63;;
47960;SDS011;33721;48.852;9.936;2022-12-18T11:44:34;71.20;;;23.58;;
47960;SDS011;33721;48.852;9.936;2022-12-18T11:47:12;67.93;;;21.65;;
47960;SDS011;33721;48.852;9.936;2022-12-18T11:50:00;68.90;;;20.27;;
47960;SDS011;33721;48.852;9.936;2022-12-18T11:52:28;60.03;;;16.73;;
47960;SDS011;33721;48.852;9.936;2022-12-18T11:55:04;55.15;;;16.75;;
47960;SDS011;33721;48.852;9.936;2022-12-18T12:00:35;59.35;;;18.30;;
47960;SDS011;33721;48.852;9.936;2022-12-18T12:03:20;58.30;;;18.35;;
47960;SDS011;33721;48.852;9.936;2022-12-18T12:19:06;70.00;;;19.52;;
47960;SDS011;33721;48.852;9.936;2022-12-18T12:21:42;59.90;;;17.05;;
47960;SDS011;33721;48.852;9.936;2022-12-18T12:40:20;67.78;;;18.63;;
47960;SDS011;33721;48.852;9.936;2022-12-18T12:42:52;57.47;;;18.42;;
47960;SDS011;33721;48.852;9.936;2022-12-18T12:46:13;60.78;;;18.42;;
47960;SDS011;33721;48.852;9.936;2022-12-18T12:48:43;63.47;;;17.73;;
47960;SDS011;33721;48.852;9.936;2022-12-18T12:51:14;66.45;;;18.98;;
47960;SDS011;33721;48.852;9.936;2022-12-18T12:53:43;68.00;;;19.08;;
47960;SDS011;33721;48.852;9.936;2022-12-18T12:56:11;67.40;;;20.10;;
47960;SDS011;33721;48.852;9.936;2022-12-18T12:58:46;63.92;;;19.25;;
47960;SDS011;33721;48.852;9.936;2022-12-18T13:07:24;64.85;;;17.48;;
47960;SDS011;33721;48.852;9.936;2022-12-18T13:13:01;56.95;;;17.25;;
47960;SDS011;33721;48.852;9.936;2022-12-18T13:20:36;63.08;;;17.98;;
47960;SDS011;33721;48.852;9.936;2022-12-18T13:25:49;63.80;;;18.13;;
47960;SDS011;33721;48.852;9.936;2022-12-18T13:28:15;65.07;;;18.17;;
47960;SDS011;33721;48.852;9.936;2022-12-18T13:30:46;63.15;;;19.08;;
47960;SDS011;33721;48.852;9.936;2022-12-18T13:41:00;65.22;;;18.95;;
47960;SDS011;33721;48.852;9.936;2022-12-18T13:43:28;66.25;;;19.23;;
47960;SDS011;33721;48.852;9.936;2022-12-18T13:46:01;60.83;;;18.65;;
47960;SDS011;33721;48.852;9.936;2022-12-18T13:48:41;63.67;;;17.75;;
47960;SDS011;33721;48.852;9.936;2022-12-18T13:51:19;68.50;;;17.98;;
47960;SDS011;33721;48.852;9.936;2022-12-18T13:53:53;61.95;;;18.58;;
47960;SDS011;33721;48.852;9.936;2022-12-18T13:56:25;59.15;;;17.60;;
47960;SDS011;33721;48.852;9.936;2022-12-18T14:01:51;56.58;;;16.67;;
47960;SDS011;33721;48.852;9.936;2022-12-18T14:04:52;60.30;;;17.48;;
47960;SDS011;33721;48.852;9.936;2022-12-18T14:07:22;59.65;;;17.05;;
47960;SDS011;33721;48.852;9.936;2022-12-18T14:09:56;61.72;;;17.45;;
47960;SDS011;33721;48.852;9.936;2022-12-18T14:12:25;67.07;;;19.77;;
47960;SDS011;33721;48.852;9.936;2022-12-18T14:20:41;67.28;;;20.52;;
47960;SDS011;33721;48.852;9.936;2022-12-18T14:26:18;64.47;;;19.35;;
47960;SDS011;33721;48.852;9.936;2022-12-18T14:28:48;66.30;;;18.35;;
47960;SDS011;33721;48.852;9.936;2022-12-18T14:31:20;81.28;;;21.52;;
47960;SDS011;33721;48.852;9.936;2022-12-18T14:33:49;61.88;;;18.75;;
47960;SDS011;33721;48.852;9.936;2022-12-18T14:36:22;69.40;;;20.48;;
47960;SDS011;33721;48.852;9.936;2022-12-18T14:38:53;60.83;;;18.40;;
47960;SDS011;33721;48.852;9.936;2022-12-18T14:41:20;63.97;;;19.05;;
47960;SDS011;33721;48.852;9.936;2022-12-18T14:43:48;80.38;;;23.05;;
47960;SDS011;33721;48.852;9.936;2022-12-18T14:48:50;71.80;;;22.45;;
47960;SDS011;33721;48.852;9.936;2022-12-18T14:51:17;65.47;;;20.10;;
47960;SDS011;33721;48.852;9.936;2022-12-18T14:53:48;62.83;;;18.85;;
47960;SDS011;33721;48.852;9.936;2022-12-18T14:59:02;78.55;;;22.33;;
47960;SDS011;33721;48.852;9.936;2022-12-18T15:01:44;75.63;;;22.38;;
47960;SDS011;33721;48.852;9.936;2022-12-18T15:07:11;64.95;;;19.35;;
47960;SDS011;33721;48.852;9.936;2022-12-18T15:18:04;67.93;;;20.15;;
47960;SDS011;33721;48.852;9.936;2022-12-18T15:20:41;64.85;;;18.17;;
47960;SDS011;33721;48.852;9.936;2022-12-18T15:23:16;66.88;;;19.20;;
47960;SDS011;33721;48.852;9.936;2022-12-18T15:25:53;61.65;;;19.25;;
47960;SDS011;33721;48.852;9.936;2022-12-18T15:33:44;68.25;;;20.60;;
47960;SDS011;33721;48.852;9.936;2022-12-18T15:36:18;64.22;;;18.83;;
47960;SDS011;33721;48.852;9.936;2022-12-18T15:38:47;64.25;;;20.40;;
47960;SDS011;33721;48.852;9.936;2022-12-18T15:41:14;65.07;;;19.80;;
47960;SDS011;33721;48.852;9.936;2022-12-18T15:43:42;61.72;;;17.67;;
47960;SDS011;33721;48.852;9.936;2022-12-18T15:46:21;71.22;;;21.55;;
47960;SDS011;33721;48.852;9.936;2022-12-18T15:48:51;73.32;;;21.25;;
47960;SDS011;33721;48.852;9.936;2022-12-18T15:51:22;68.53;;;19.30;;
47960;SDS011;33721;48.852;9.936;2022-12-18T15:53:51;60.08;;;17.45;;
47960;SDS011;33721;48.852;9.936;2022-12-18T15:56:20;71.43;;;19.63;;
47960;SDS011;33721;48.852;9.936;2022-12-18T15:59:14;63.25;;;18.35;;
47960;SDS011;33721;48.852;9.936;2022-12-18T16:01:46;67.30;;;18.73;;
47960;SDS011;33721;48.852;9.936;2022-12-18T16:04:13;68.32;;;18.85;;
47960;SDS011;33721;48.852;9.936;2022-12-18T16:06:41;73.00;;;19.98;;
47960;SDS011;33721;48.852;9.936;2022-12-18T16:09:07;75.55;;;20.80;;
47960;SDS011;33721;48.852;9.936;2022-12-18T16:11:34;75.68;;;21.83;;
47960;SDS011;33721;48.852;9.936;2022-12-18T16:14:21;71.45;;;21.92;;
47960;SDS011;33721;48.852;9.936;2022-12-18T16:16:52;66.75;;;18.40;;
47960;SDS011;33721;48.852;9.936;2022-12-18T16:19:19;86.85;;;22.70;;
47960;SDS011;33721;48.852;9.936;2022-12-18T16:21:46;82.03;;;23.42;;
47960;SDS011;33721;48.852;9.936;2022-12-18T16:24:17;79.85;;;21.48;;
47960;SDS011;33721;48.852;9.936;2022-12-18T16:26:48;69.53;;;21.15;;
47960;SDS011;33721;48.852;9.936;2022-12-18T16:29:16;86.95;;;22.98;;
47960;SDS011;33721;48.852;9.936;2022-12-18T16:31:42;82.55;;;21.17;;
47960;SDS011;33721;48.852;9.936;2022-12-18T16:34:12;78.15;;;22.65;;
47960;SDS011;33721;48.852;9.936;2022-12-18T16:36:49;67.32;;;19.23;;
47960;SDS011;33721;48.852;9.936;2022-12-18T16:39:15;66.80;;;19.33;;
47960;SDS011;33721;48.852;9.936;2022-12-18T16:41:41;67.57;;;18.73;;
47960;SDS011;33721;48.852;9.936;2022-12-18T16:44:07;61.75;;;17.65;;